createdAt,value
2022-08-05T00:04:37.749Z,63.14
2022-08-05T00:10:41.757Z,63.00
2022-08-05T00:16:52.908Z,63.03
2022-08-05T00:22:59.590Z,62.91
2022-08-05T00:29:04.019Z,62.75
2022-08-05T00:35:07.576Z,63.04
2022-08-05T00:41:11.633Z,62.92
2022-08-05T00:47:16.357Z,62.63
2022-08-05T00:54:01.242Z,62.87
2022-08-05T00:59:44.245Z,63.01
2022-08-05T01:05:45.956Z,62.59
2022-08-05T01:11:49.000Z,62.59
2022-08-05T01:17:53.513Z,63.03
2022-08-05T01:23:55.983Z,62.54
2022-08-05T01:29:58.227Z,62.90
2022-08-05T01:35:59.750Z,62.77
2022-08-05T01:42:01.209Z,62.80
2022-08-05T01:48:03.298Z,62.73
2022-08-05T01:54:11.876Z,62.96
2022-08-05T02:00:19.497Z,62.95
2022-08-05T02:06:36.928Z,62.82
2022-08-05T02:12:39.575Z,62.54
2022-08-05T02:18:42.076Z,62.85
2022-08-05T02:24:43.636Z,62.70
2022-08-05T02:30:54.761Z,62.94
2022-08-05T02:36:58.062Z,62.76
2022-08-05T02:42:59.556Z,62.98
2022-08-05T02:49:01.075Z,62.87
2022-08-05T02:55:05.177Z,62.80
2022-08-05T03:01:07.954Z,62.60
2022-08-05T03:07:40.530Z,62.31
2022-08-05T03:13:51.532Z,62.60
2022-08-05T03:19:55.800Z,62.20
2022-08-05T03:26:04.598Z,62.71
2022-08-05T03:32:21.603Z,62.47
2022-08-05T03:38:33.191Z,62.69
2022-08-05T03:44:38.779Z,62.42
2022-08-05T03:50:40.752Z,62.46
2022-08-05T03:56:46.943Z,62.12
2022-08-05T04:02:57.807Z,62.28
2022-08-05T04:09:00.394Z,62.00
2022-08-05T04:15:01.877Z,61.53
2022-08-05T04:21:05.341Z,61.07
2022-08-05T04:27:07.271Z,60.60
2022-08-05T04:33:09.126Z,59.93
2022-08-05T04:39:11.099Z,59.60
2022-08-05T04:45:22.892Z,59.07
2022-08-05T04:51:32.883Z,58.69
2022-08-05T04:57:37.206Z,58.02
2022-08-05T05:03:42.225Z,57.46
2022-08-05T05:09:44.382Z,56.85
2022-08-05T05:15:56.141Z,56.64
2022-08-05T05:22:22.978Z,57.04
2022-08-05T05:28:22.452Z,56.87
2022-08-05T05:34:27.318Z,56.62
2022-08-05T05:40:28.931Z,57.30
2022-08-05T05:46:31.650Z,57.75
2022-08-05T05:52:37.923Z,58.06
2022-08-05T05:58:42.176Z,51.84
2022-08-05T06:04:44.106Z,52.95
2022-08-05T06:10:52.877Z,52.47
2022-08-05T06:16:54.880Z,57.13
2022-08-05T06:22:58.435Z,56.38
2022-08-05T06:29:00.228Z,57.12
2022-08-05T06:35:05.925Z,57.39
2022-08-05T06:41:16.950Z,57.38
2022-08-05T06:48:11.867Z,58.68
2022-08-05T06:53:40.322Z,59.56
2022-08-05T06:59:42.325Z,59.43
2022-08-05T07:05:57.037Z,57.96
2022-08-05T07:12:00.530Z,56.34
2022-08-05T07:18:09.774Z,57.02
2022-08-05T07:24:13.788Z,56.11
2022-08-05T07:30:24.083Z,57.09
2022-08-05T07:36:33.781Z,57.97
2022-08-05T07:42:36.328Z,57.39
2022-08-05T07:49:03.953Z,58.03
2022-08-05T07:55:00.072Z,57.72
2022-08-05T08:01:01.712Z,57.32
2022-08-05T08:07:07.951Z,55.94
2022-08-05T08:13:09.773Z,56.01
2022-08-05T08:19:37.956Z,56.94
2022-08-05T08:26:00.260Z,55.84
2022-08-05T08:31:56.988Z,56.76
2022-08-05T08:37:58.987Z,56.32
2022-08-05T08:45:22.151Z,56.74
2022-08-05T08:50:32.784Z,56.46
2022-08-05T08:56:47.605Z,55.92
2022-08-05T09:02:51.361Z,55.93
2022-08-05T09:08:53.300Z,56.31
2022-08-05T09:14:58.635Z,56.49
2022-08-05T09:21:11.506Z,56.99
2022-08-05T09:27:13.409Z,57.35
2022-08-05T09:33:35.660Z,57.36
2022-08-05T09:39:41.550Z,57.61
2022-08-05T09:46:07.735Z,57.14
2022-08-05T09:52:09.715Z,57.10
2022-08-05T09:58:13.034Z,57.47
2022-08-05T10:04:16.150Z,57.91
2022-08-05T10:10:28.058Z,57.42
2022-08-05T10:16:30.750Z,56.25
2022-08-05T10:22:34.987Z,54.73
2022-08-05T10:28:39.796Z,58.14
2022-08-05T10:34:43.877Z,58.76
2022-08-05T10:40:46.387Z,58.74
2022-08-05T10:46:50.767Z,59.28
2022-08-05T10:53:00.141Z,59.52
2022-08-05T10:59:12.129Z,59.73
2022-08-05T11:05:14.428Z,59.37
2022-08-05T11:11:20.226Z,59.66
2022-08-05T11:17:59.038Z,59.81
2022-08-05T11:24:02.879Z,59.53
2022-08-05T11:30:05.614Z,59.39
2022-08-05T11:36:11.885Z,59.94
2022-08-05T11:42:18.568Z,60.52
2022-08-05T11:48:21.560Z,60.34
2022-08-05T11:54:33.779Z,60.76
2022-08-05T12:00:38.539Z,60.88
2022-08-05T12:06:40.698Z,61.06
2022-08-05T12:12:59.388Z,60.98
2022-08-05T12:19:01.697Z,61.10
2022-08-05T12:25:03.836Z,61.35
2022-08-05T12:31:06.269Z,61.28
2022-08-05T12:37:16.227Z,61.30
2022-08-05T12:43:23.237Z,60.80
2022-08-05T12:49:25.593Z,61.07
2022-08-05T12:55:28.404Z,60.65
2022-08-05T13:02:01.592Z,60.57
2022-08-05T13:07:57.809Z,60.57
2022-08-05T13:14:05.790Z,60.92
2022-08-05T13:20:09.066Z,60.80
2022-08-05T13:26:13.064Z,61.14
2022-08-05T13:32:15.249Z,61.24
2022-08-05T13:38:36.125Z,61.58
2022-08-05T13:44:44.611Z,61.53
2022-08-05T13:50:47.116Z,61.52
2022-08-05T13:56:51.582Z,61.47
2022-08-05T14:02:53.409Z,61.81
2022-08-05T14:08:54.965Z,61.56
2022-08-05T14:15:01.098Z,61.49
2022-08-05T14:21:23.822Z,61.77
2022-08-05T14:27:47.472Z,61.95
2022-08-05T14:33:59.287Z,61.63
2022-08-05T14:40:03.154Z,61.80
2022-08-05T14:46:05.913Z,61.94
2022-08-05T14:52:10.121Z,62.08
2022-08-05T14:58:14.198Z,62.01
2022-08-05T15:04:16.006Z,62.02
2022-08-05T15:10:17.884Z,62.54
2022-08-05T15:16:30.841Z,62.35
2022-08-05T15:22:33.983Z,62.45
2022-08-05T15:28:35.800Z,62.26
2022-08-05T15:34:44.452Z,59.37
2022-08-05T15:41:21.235Z,55.73
2022-08-05T15:47:07.346Z,59.09
2022-08-05T15:53:09.611Z,59.62
2022-08-05T15:59:21.720Z,60.17
2022-08-05T16:05:23.591Z,60.67
2022-08-05T16:11:42.884Z,59.96
2022-08-05T16:17:47.594Z,60.60
2022-08-05T16:24:01.637Z,60.40
2022-08-05T16:30:04.899Z,61.05
2022-08-05T16:36:07.135Z,61.51
2022-08-05T16:42:14.382Z,61.57
2022-08-05T16:48:25.006Z,61.53
2022-08-05T16:54:32.912Z,61.65
2022-08-05T17:00:37.903Z,61.79
2022-08-05T17:06:41.984Z,61.86
2022-08-05T17:12:51.883Z,62.04
2022-08-05T17:18:53.925Z,61.68
2022-08-05T17:24:57.449Z,61.98
2022-08-05T17:30:59.800Z,61.61
2022-08-05T17:37:27.358Z,61.88
2022-08-05T17:43:53.026Z,62.19
2022-08-05T17:50:04.016Z,62.43
2022-08-05T17:56:06.715Z,62.67
2022-08-05T18:02:09.915Z,62.58
2022-08-05T18:08:12.441Z,62.88
2022-08-05T18:14:20.642Z,62.80
2022-08-05T18:20:29.513Z,62.48
2022-08-05T18:26:33.622Z,62.30
2022-08-05T18:32:35.159Z,62.33
2022-08-05T18:38:40.697Z,62.32
2022-08-05T18:44:51.791Z,60.47
2022-08-05T18:52:05.398Z,62.88
2022-08-05T18:57:43.650Z,61.82
2022-08-05T19:03:55.429Z,60.38
2022-08-05T19:09:58.213Z,62.42
2022-08-05T19:16:03.843Z,61.92
2022-08-05T19:22:05.458Z,62.42
2022-08-05T19:28:06.895Z,61.97
2022-08-05T19:34:08.776Z,61.96
2022-08-05T19:40:10.755Z,62.56
2022-08-05T19:46:16.812Z,61.15
2022-08-05T19:52:32.490Z,62.52
2022-08-05T19:58:53.344Z,65.66
2022-08-05T20:04:59.000Z,65.73
2022-08-05T20:11:01.205Z,66.02
2022-08-05T20:17:06.588Z,66.19
2022-08-05T20:23:08.512Z,66.61
2022-08-05T20:29:27.670Z,66.34
2022-08-05T20:35:29.389Z,66.93
2022-08-05T20:41:44.308Z,66.36
2022-08-05T20:47:46.824Z,66.42
2022-08-05T20:53:56.296Z,66.27
2022-08-05T21:00:19.891Z,66.54
2022-08-05T21:06:28.570Z,66.86
2022-08-05T21:12:31.277Z,66.48
2022-08-05T21:18:34.821Z,66.76
2022-08-05T21:24:37.418Z,66.64
2022-08-05T21:30:39.159Z,66.81
2022-08-05T21:36:42.601Z,66.50
2022-08-05T21:42:48.551Z,66.75
2022-08-05T21:48:53.609Z,66.70
2022-08-05T21:55:06.418Z,66.34
2022-08-05T22:01:08.695Z,66.48
2022-08-05T22:07:12.381Z,66.36
2022-08-05T22:14:19.360Z,66.47
2022-08-05T22:19:57.534Z,65.97
2022-08-05T22:26:15.776Z,65.95
2022-08-05T22:32:17.731Z,66.33
2022-08-05T22:38:19.762Z,66.16
2022-08-05T22:44:21.323Z,66.06
2022-08-05T22:50:26.767Z,66.39
2022-08-05T22:56:30.103Z,66.37
2022-08-05T23:02:32.713Z,65.86
2022-08-05T23:08:34.425Z,65.89
2022-08-05T23:14:37.594Z,65.99
2022-08-05T23:20:39.188Z,65.67
2022-08-05T23:26:41.252Z,65.67
2022-08-05T23:32:45.647Z,65.47
2022-08-05T23:38:47.102Z,65.50
2022-08-05T23:44:54.483Z,65.52
2022-08-05T23:50:56.092Z,65.54
2022-08-05T23:57:03.722Z,65.31
